Latest Weather Observations for Luncheon Hill

IDT60801

Issued at 2:05 pm EDT Wednesday 22 October 2014 (issued every 30 minutes, with the page automatically refreshed every 10 minutes)

About weather observations | Map of weather stations | Latest weather observations for TAS | Other Formats
Station Details ID: 091259 Name: LUNCHEON HILL (FORESTRY) Lat: -41.15 Lon: 145.15 Height: 344.0 m
Data from the previous 72 hours. | See also: Recent months at Luncheon Hill
Date/Time
EDT
Temp
°C
App
Temp
°C
Dew
Point
Rel
Hum
%
Delta-T
°C
Wind Press
QNH
hPa
Press
MSL
hPa
Rain
since 9 am
mm
Dir
 
Spd
km/h
Gust
km/h
Spd
kts
Gust
kts
22/02:00pm 17.9 13.8 11.5 66 3.6 NE 24 30 13 16 - - 0.0
22/01:30pm 18.3 13.8 11.4 64 3.8 NNE 26 32 14 17 - - 0.0
22/01:00pm 19.0 14.0 11.1 60 4.4 NE 28 37 15 20 - - 0.0
22/12:30pm 17.5 13.4 11.5 68 3.3 NE 24 32 13 17 - - 0.0
22/12:00pm 17.3 12.2 10.7 65 3.6 NE 28 39 15 21 - - 0.0
22/11:30am 16.7 11.1 10.3 66 3.4 ENE 30 39 16 21 - - 0.0
22/11:00am 17.2 11.8 10.8 66 3.5 NE 30 41 16 22 - - 0.0
22/10:30am 16.6 11.5 10.7 68 3.2 ENE 28 39 15 21 - - 0.0
22/10:00am 14.5 7.6 8.9 69 2.9 ENE 35 48 19 26 - - 0.0
22/09:30am 13.8 6.5 8.8 72 2.6 ENE 37 48 20 26 - - 0.0
22/09:00am 13.2 5.9 8.7 74 2.3 ENE 37 52 20 28 - - 0.0
22/08:30am 12.6 7.3 8.5 76 2.1 ENE 26 39 14 21 - - 0.0
22/08:05am 11.7 5.2 8.0 78 1.8 E 32 50 17 27 - - 0.0
22/08:00am 11.6 5.8 7.9 78 1.8 ENE 28 44 15 24 - - 0.0
22/07:30am 10.6 4.7 7.7 82 1.4 E 28 48 15 26 - - 0.0
22/07:17am 10.3 3.6 7.5 83 1.4 E 32 50 17 27 - - 0.0
22/07:00am 9.8 3.9 7.4 85 1.2 ENE 28 44 15 24 - - 0.0
22/06:53am 9.7 3.8 7.3 85 1.2 ENE 28 46 15 25 - - 0.0
22/06:30am 9.5 2.8 7.3 86 1.1 E 32 46 17 25 - - 0.0
22/06:00am 9.6 2.9 7.4 86 1.1 ENE 32 43 17 23 - - 0.0
22/05:30am 9.5 3.6 7.3 86 1.1 ENE 28 43 15 23 - - 0.0
22/05:03am 9.5 2.8 7.3 86 1.1 ENE 32 50 17 27 - - 0.0
22/05:00am 9.5 2.6 7.3 86 1.1 ENE 33 50 18 27 - - 0.0
22/04:30am 9.4 2.1 7.3 87 1.0 ENE 35 46 19 25 - - 0.0
22/04:09am 9.4 2.1 7.3 87 1.0 ENE 35 54 19 29 - - 0.0
22/04:00am 9.3 2.0 7.3 87 1.0 ENE 35 48 19 26 - - 0.0
22/03:30am 9.5 2.2 7.3 86 1.1 ENE 35 54 19 29 - - 0.0
22/03:00am 9.6 1.6 7.4 86 1.1 ENE 39 59 21 32 - - 0.0
22/02:52am 9.6 2.4 7.5 87 1.0 ENE 35 59 19 32 - - 0.0
22/02:30am 9.5 2.2 7.4 87 1.0 ENE 35 52 19 28 - - 0.0
22/02:00am 9.7 1.8 7.8 88 0.9 ENE 39 57 21 31 - - 0.0
22/01:41am 9.7 1.8 7.8 88 0.9 ENE 39 63 21 34 - - 0.0
22/01:30am 9.6 1.3 7.7 88 0.9 ENE 41 54 22 29 - - 0.0
22/01:10am 9.6 1.2 7.5 87 1.0 ENE 41 61 22 33 - - 0.0
22/01:00am 9.6 1.6 7.5 87 1.0 ENE 39 54 21 29 - - 0.0
22/12:30am 9.4 1.4 7.5 88 0.9 ENE 39 61 21 33 - - 0.0
22/12:01am 9.3 1.5 8.1 92 0.6 ENE 39 57 21 31 - - 0.0
22/12:00am 9.3 1.1 8.1 92 0.6 ENE 41 57 22 31 - - 0.0
 
Date/Time
EDT
Temp
°C
App
Temp
°C
Dew
Point
Rel
Hum
%
Delta-T
°C
Wind Press
QNH
hPa
Press
MSL
hPa
Rain
since 9 am
mm
Dir
 
Spd
km/h
Gust
km/h
Spd
kts
Gust
kts
21/11:31pm 9.2 1.3 8.0 92 0.6 ENE 39 57 21 31 - - 0.0
21/11:30pm 9.2 1.0 8.0 92 0.6 ENE 41 57 22 31 - - 0.0
21/11:22pm 9.2 1.7 8.0 92 0.6 ENE 37 57 20 31 - - 0.0
21/11:00pm 9.1 1.2 7.7 91 0.7 ENE 39 56 21 30 - - 0.0
21/10:30pm 9.2 1.6 7.5 89 0.8 ENE 37 50 20 27 - - 0.0
21/10:20pm 9.2 1.5 7.3 88 0.9 ENE 37 57 20 31 - - 0.0
21/10:00pm 9.3 1.6 7.3 87 1.0 ENE 37 52 20 28 - - 0.0
21/09:41pm 9.3 2.0 7.1 86 1.1 ENE 35 54 19 29 - - 0.0
21/09:30pm 9.4 1.7 7.0 85 1.1 ENE 37 52 20 28 - - 0.0
21/09:00pm 9.6 2.2 6.9 83 1.3 ENE 35 59 19 32 - - 0.0
21/08:44pm 9.8 2.1 6.9 82 1.4 ENE 37 56 20 30 - - 0.0
21/08:30pm 9.8 2.4 6.7 81 1.5 ENE 35 50 19 27 - - 0.0
21/08:05pm 10.1 2.2 6.4 78 1.8 ENE 37 56 20 30 - - 0.0
21/08:00pm 10.2 2.0 6.4 77 1.8 ENE 39 56 21 30 - - 0.0
21/07:30pm 10.6 2.7 6.0 73 2.2 ENE 37 52 20 28 - - 0.0
21/07:02pm 11.3 3.4 6.0 70 2.5 ENE 37 61 20 33 - - 0.0
21/07:00pm 11.3 4.1 6.0 70 2.5 ENE 33 48 18 26 - - 0.0
21/06:30pm 11.9 2.8 6.0 67 2.8 ENE 43 65 23 35 - - 0.0
21/06:17pm 12.5 4.6 6.3 66 3.0 NE 37 57 20 31 - - 0.0
21/06:00pm 12.9 4.6 6.3 64 3.2 NE 39 50 21 27 - - 0.0
21/05:30pm 13.6 4.9 6.2 61 3.6 NE 41 54 22 29 - - 0.0
21/05:00pm 13.6 4.8 5.7 59 3.8 ENE 41 59 22 32 - - 0.0
21/04:30pm 14.5 6.2 6.3 58 4.0 ENE 39 59 21 32 - - 0.0
21/04:00pm 14.9 6.3 6.5 57 4.1 ENE 41 59 22 32 - - 0.0
21/03:32pm 14.7 5.6 6.0 56 4.2 NE 43 61 23 33 - - 0.0
21/03:30pm 14.7 5.5 6.3 57 4.1 NE 44 61 24 33 - - 0.0
21/03:15pm 15.0 6.7 6.3 56 4.3 ENE 39 57 21 31 - - 0.0
21/03:00pm 14.4 4.7 5.7 56 4.2 NE 46 61 25 33 - - 0.0
21/02:31pm 16.0 8.3 7.2 56 4.4 NE 37 56 20 30 - - 0.0
21/02:30pm 15.5 7.7 6.5 55 4.5 NE 37 52 20 28 - - 0.0
21/02:25pm 15.2 6.3 6.7 57 4.2 NE 43 61 23 33 - - 0.0
21/02:00pm 15.1 5.5 6.1 55 4.4 NE 46 61 25 33 - - 0.0
21/01:41pm 15.2 6.2 6.2 55 4.4 NE 43 65 23 35 - - 0.0
21/01:30pm 15.3 6.3 6.3 55 4.4 NE 43 59 23 32 - - 0.0
21/01:09pm 15.4 7.5 6.1 54 4.6 NE 37 59 20 32 - - 0.0
21/01:00pm 15.4 7.2 6.7 56 4.3 NE 39 56 21 30 - - 0.0
21/12:31pm 14.5 6.4 5.3 54 4.4 NE 37 56 20 30 - - 0.0
21/12:30pm 15.1 7.2 6.1 55 4.4 NE 37 52 20 28 - - 0.0
21/12:00pm 14.7 6.4 6.0 56 4.2 NE 39 61 21 33 - - 0.0
21/11:34am 13.3 4.9 5.5 59 3.7 ENE 39 57 21 31 - - 0.0
21/11:30am 13.0 4.1 4.9 58 3.8 ENE 41 57 22 31 - - 0.0
21/11:06am 13.1 4.4 5.8 61 3.5 ENE 41 59 22 32 - - 0.0
21/11:00am 12.8 3.5 5.2 60 3.6 ENE 43 59 23 32 - - 0.0
21/10:30am 12.4 3.3 5.8 64 3.2 ENE 43 65 23 35 - - 0.0
21/10:00am 11.3 2.8 5.2 66 2.9 ENE 39 59 21 32 - - 0.0
21/09:30am 10.8 2.2 4.9 67 2.7 ENE 39 57 21 31 - - 0.0
21/09:05am 10.8 3.0 5.1 68 2.6 ENE 35 54 19 29 - - 0.0
21/09:00am 10.7 3.0 5.3 69 2.5 ENE 35 52 19 28 - - 0.0
21/08:31am 10.0 2.7 4.6 69 2.5 ENE 32 50 17 27 - - 0.0
21/08:30am 10.1 2.9 4.9 70 2.4 ENE 32 48 17 26 - - 0.0
21/08:00am 9.3 2.4 4.7 73 2.1 E 30 50 16 27 - - 0.0
21/07:31am 8.3 1.7 4.3 76 1.8 E 28 46 15 25 - - 0.0
21/07:30am 8.3 1.3 4.3 76 1.8 E 30 46 16 25 - - 0.0
21/07:00am 7.5 0.2 4.3 80 1.4 ENE 32 44 17 24 - - 0.0
21/06:30am 7.1 0.2 4.6 84 1.1 ENE 30 44 16 24 - - 0.0
21/06:00am 7.0 0.1 4.7 85 1.0 ENE 30 44 16 24 - - 0.0
21/05:30am 7.0 0.1 4.8 86 1.0 ENE 30 41 16 22 - - 0.0
21/05:00am 6.8 -0.5 4.5 85 1.0 ENE 32 39 17 21 - - 0.0
21/04:30am 6.7 0.9 4.2 84 1.1 ENE 24 39 13 21 - - 0.0
21/04:00am 6.9 -0.5 4.2 83 1.2 ENE 32 43 17 23 - - 0.0
21/03:39am 6.6 -0.1 3.9 83 1.2 E 28 46 15 25 - - 0.0
21/03:30am 6.6 -0.4 3.9 83 1.2 E 30 46 16 25 - - 0.0
21/03:05am 6.5 -0.2 3.8 83 1.2 E 28 46 15 25 - - 0.0
21/03:00am 6.7 -0.7 4.0 83 1.2 E 32 44 17 24 - - 0.0
21/02:30am 6.6 -0.8 4.1 84 1.1 ENE 32 43 17 23 - - 0.0
21/02:00am 6.6 -0.4 3.9 83 1.2 ENE 30 39 16 21 - - 0.0
21/01:30am 6.6 -0.5 3.8 82 1.2 ENE 30 43 16 23 - - 0.0
21/01:00am 6.4 -0.3 3.4 81 1.3 ENE 28 35 15 19 - - 0.0
21/12:30am 6.3 0.3 3.1 80 1.4 ENE 24 32 13 17 - - 0.0
21/12:00am 6.2 0.0 2.3 76 1.6 E 24 32 13 17 - - 0.0
 
Date/Time
EDT
Temp
°C
App
Temp
°C
Dew
Point
Rel
Hum
%
Delta-T
°C
Wind Press
QNH
hPa
Press
MSL
hPa
Rain
since 9 am
mm
Dir
 
Spd
km/h
Gust
km/h
Spd
kts
Gust
kts
20/11:30pm 6.1 0.2 1.8 74 1.8 E 22 30 12 16 - - 0.0
20/11:00pm 6.1 0.5 1.2 71 2.0 E 20 32 11 17 - - 0.0
20/10:30pm 6.1 0.5 -0.2 64 2.5 E 19 24 10 13 - - 0.0
20/10:00pm 6.2 0.5 -0.7 61 2.7 ENE 19 22 10 12 - - 0.0
20/09:30pm 6.6 0.9 -0.8 59 2.9 E 19 26 10 14 - - 0.0
20/09:00pm 6.8 1.9 -0.6 59 2.9 E 15 20 8 11 - - 0.0
20/08:30pm 7.2 2.0 0.0 60 2.9 ENE 17 19 9 10 - - 0.0
20/08:00pm 7.3 2.2 0.5 62 2.7 NNE 17 20 9 11 - - 0.0
20/07:30pm 8.0 3.2 0.3 58 3.1 NNE 15 20 8 11 - - 0.0
20/07:00pm 9.2 3.7 0.4 54 3.6 N 19 24 10 13 - - 0.0
20/06:30pm 10.4 4.8 1.2 53 3.9 N 20 26 11 14 - - 0.0
20/06:00pm 11.4 5.9 1.6 51 4.2 NNW 20 24 11 13 - - 0.0
20/05:30pm 12.4 6.4 1.1 46 4.9 N 22 32 12 17 - - 0.0
20/05:00pm 13.3 7.3 1.3 44 5.2 N 22 30 12 16 - - 0.0
20/04:30pm 14.1 8.7 2.4 45 5.3 NNW 20 28 11 15 - - 0.0
20/04:00pm 14.3 8.9 2.2 44 5.4 N 20 28 11 15 - - 0.0
20/03:30pm 14.1 8.2 2.0 44 5.4 NNW 22 30 12 16 - - 0.0
20/03:00pm 14.6 9.1 4.0 49 5.0 NNW 22 30 12 16 - - 0.0
20/02:30pm 14.8 9.5 1.7 41 5.8 N 19 22 10 12 - - 0.0
20/02:00pm 15.3 12.3 4.1 47 5.3 N 9 19 5 10 - - 0.0
20/01:30pm 14.4 10.8 2.9 46 5.2 N 11 22 6 12 - - 0.0
20/01:00pm 14.2 10.1 4.2 51 4.7 NNW 15 22 8 12 - - 0.0
20/12:30pm 12.7 8.9 2.0 48 4.7 N 11 17 6 9 - - 0.0
20/12:00pm 12.1 8.1 2.6 52 4.2 WNW 13 20 7 11 - - 0.0
20/11:30am 11.5 7.4 2.0 52 4.1 N 13 19 7 10 - - 0.0
20/11:00am 10.5 6.2 0.8 51 4.1 N 13 20 7 11 - - 0.0
20/10:30am 9.1 5.9 1.0 57 3.4 E 7 11 4 6 - - 0.0
20/10:00am 8.6 5.7 2.4 65 2.7 SSE 7 11 4 6 - - 0.0
20/09:30am 8.5 5.7 3.1 69 2.3 SE 7 13 4 7 - - 0.0
20/09:00am 7.0 3.7 2.7 74 1.8 SE 9 17 5 9 - - 1.6
20/08:30am 5.8 2.1 2.3 78 1.5 SE 11 19 6 10 - - 1.6
20/08:00am 4.5 1.1 1.7 82 1.1 SSE 9 17 5 9 - - 1.6
20/07:30am 3.9 0.5 2.1 88 0.7 SE 9 15 5 8 - - 1.6
20/07:00am 2.5 -1.3 1.5 93 0.4 SE 11 15 6 8 - - 1.6
20/06:30am 2.2 -2.8 1.2 93 0.4 SSE 17 22 9 12 - - 1.6
20/06:00am 1.6 -2.0 0.9 95 0.3 SSE 9 13 5 7 - - 1.6
20/05:30am 1.6 -2.7 1.0 96 0.2 SSE 13 20 7 11 - - 1.4
20/05:00am 1.2 -4.3 0.5 95 0.3 S 19 30 10 16 - - 1.4
20/04:30am 1.9 -3.6 0.9 93 0.4 S 19 26 10 14 - - 1.4
20/04:00am 2.5 -2.5 1.6 94 0.4 S 17 22 9 12 - - 1.4
20/03:30am 2.5 -2.1 1.5 93 0.4 S 15 20 8 11 - - 1.4
20/03:00am 2.1 -2.6 1.1 93 0.4 S 15 20 8 11 - - 1.4
20/02:30am 3.0 -1.9 2.0 93 0.4 S 17 22 9 12 - - 1.4
20/02:00am 3.0 -1.9 2.0 93 0.4 S 17 20 9 11 - - 1.4
20/01:30am 2.8 -1.4 1.9 94 0.4 S 13 19 7 10 - - 1.4
20/01:00am 3.1 -1.8 2.2 94 0.4 S 17 22 9 12 - - 1.4
20/12:30am 3.6 -1.7 2.9 95 0.3 S 20 28 11 15 - - 1.4
20/12:00am 3.5 -1.8 2.9 96 0.2 S 20 30 11 16 - - 1.4
 
Date/Time
EDT
Temp
°C
App
Temp
°C
Dew
Point
Rel
Hum
%
Delta-T
°C
Wind Press
QNH
hPa
Press
MSL
hPa
Rain
since 9 am
mm
Dir
 
Spd
km/h
Gust
km/h
Spd
kts
Gust
kts
19/11:30pm 3.7 -1.4 3.3 97 0.2 S 19 26 10 14 - - 1.4
19/11:00pm 4.1 -1.5 3.7 97 0.2 S 22 39 12 21 - - 1.4
19/10:30pm 4.4 -2.6 4.0 97 0.2 S 30 43 16 23 - - 1.4
19/10:00pm 4.8 -1.7 4.7 99 0.0 S 28 44 15 24 - - 1.4
19/09:30pm 5.0 -1.8 4.9 99 0.0 SSW 30 44 16 24 - - 1.4
19/09:00pm 5.0 -1.5 4.9 99 0.0 S 28 39 15 21 - - 1.2
19/08:30pm 5.4 -1.7 5.3 99 0.0 S 32 56 17 30 - - 1.2
19/08:19pm 5.8 -0.9 5.7 99 0.0 SSW 30 48 16 26 - - 1.2
19/08:00pm 5.7 0.1 5.6 99 0.0 S 24 35 13 19 - - 1.2
19/07:30pm 6.5 0.4 6.4 99 0.0 SSW 28 54 15 29 - - 1.2
19/07:28pm 6.5 0.0 6.4 99 0.0 SSW 30 54 16 29 - - 1.2
19/07:00pm 6.6 0.9 6.5 99 0.0 SSW 26 43 14 23 - - 1.0
19/06:30pm 6.7 0.9 6.4 98 0.1 SSW 26 41 14 22 - - 1.0
19/06:00pm 6.9 1.9 6.6 98 0.1 SSW 22 32 12 17 - - 0.8
19/05:30pm 7.0 0.9 6.4 96 0.3 S 28 43 15 23 - - 0.6
19/05:00pm 7.5 0.6 6.4 93 0.5 S 32 52 17 28 - - 0.2
19/04:30pm 8.5 1.5 6.8 89 0.8 S 33 56 18 30 - - 0.0
19/04:01pm 9.7 3.0 7.3 85 1.2 SSW 32 56 17 30 - - 0.0
19/04:00pm 9.9 3.2 7.5 85 1.2 SSW 32 48 17 26 - - 0.0
19/03:30pm 12.5 5.7 6.8 68 2.8 SSW 32 50 17 27 - - 0.0
19/03:00pm 13.4 7.7 8.5 72 2.5 SSW 28 46 15 25 - - 0.0
19/02:30pm 14.3 8.7 8.9 70 2.8 S 28 46 15 25 - - 0.0
19/02:21pm 13.8 8.2 8.6 71 2.7 SSW 28 46 15 25 - - 0.0

Other Formats:

Comma delimited format used in spreadsheet applications
http://www.bom.gov.au/fwo/IDT60801/IDT60801.95956.axf

JavaScript Object Notation format (JSON) in row-major order
http://www.bom.gov.au/fwo/IDT60801/IDT60801.95956.json